Time;durP1;ratioP1;P1;durP2;ratioP2;P2;SDS_P1;SDS_P2;PMS_P1;PMS_P2;Temp;Humidity;BMP_temperature;BMP_pressure;BME280_temperature;BME280_humidity;BME280_pressure;Samples;Min_cycle;Max_cycle;Signal;HPM_P1;HPM_P2
2023/03/18 00:00:46;;;;;;;12.77;5.63;;;;;;;;;;6240237;22;20167;-90
2023/03/18 00:03:52;;;;;;;18.47;7.17;;;;;;;;;;6259171;22;20200;-92
2023/03/18 00:06:57;;;;;;;13.53;6.20;;;;;;;;;;6241271;22;20217;-92
2023/03/18 00:10:02;;;;;;;13.57;5.50;;;;;;;;;;6260084;23;20239;-91
2023/03/18 00:13:09;;;;;;;12.40;5.13;;;;;;;;;;6242274;22;20241;-90
2023/03/18 00:16:14;;;;;;;13.40;5.27;;;;;;;;;;6242803;22;20167;-92
2023/03/18 00:19:20;;;;;;;12.83;5.33;;;;;;;;;;6259636;22;20261;-92
2023/03/18 00:22:28;;;;;;;12.20;5.40;;;;;;;;;;6260935;22;20229;-92
2023/03/18 00:25:34;;;;;;;12.03;5.03;;;;;;;;;;6259366;22;20182;-91
2023/03/18 00:28:44;;;;;;;14.07;4.77;;;;;;;;;;6260200;22;20242;-88
2023/03/18 00:31:49;;;;;;;10.80;4.57;;;;;;;;;;6260094;22;20162;-91
2023/03/18 00:34:55;;;;;;;13.40;4.67;;;;;;;;;;6242548;22;20163;-91
2023/03/18 00:38:02;;;;;;;11.00;4.50;;;;;;;;;;6260485;22;20186;-92
2023/03/18 00:41:12;;;;;;;13.27;5.43;;;;;;;;;;6259738;23;20237;-91
2023/03/18 00:44:19;;;;;;;10.20;4.43;;;;;;;;;;6242912;23;20239;-92
2023/03/18 00:47:24;;;;;;;13.47;4.50;;;;;;;;;;6259226;22;20298;-90
2023/03/18 01:11:03;;;;;;;9.60;4.40;;;;;;;;;;6288508;22;20214;-90
2023/03/18 01:14:09;;;;;;;13.30;4.70;;;;;;;;;;6272008;22;20217;-89
2023/03/18 01:17:15;;;;;;;11.83;4.67;;;;;;;;;;6274186;22;20165;-92
2023/03/18 01:24:41;;;;;;;13.77;4.37;;;;;;;;;;6292541;22;20223;-90
2023/03/18 01:27:48;;;;;;;10.43;4.77;;;;;;;;;;6272008;22;20165;-91
2023/03/18 01:30:56;;;;;;;11.27;4.83;;;;;;;;;;6290806;22;20169;-92
2023/03/18 01:34:02;;;;;;;12.63;5.10;;;;;;;;;;6272751;22;20213;-93
2023/03/18 01:37:15;;;;;;;13.33;5.33;;;;;;;;;;6275351;22;20153;-93
2023/03/18 01:40:24;;;;;;;16.93;6.90;;;;;;;;;;6274433;22;20170;-87
2023/03/18 01:43:34;;;;;;;14.30;5.57;;;;;;;;;;6273305;22;20175;-91
2023/03/18 01:46:41;;;;;;;10.70;4.80;;;;;;;;;;6273410;22;20258;-89
2023/03/18 01:49:47;;;;;;;10.73;4.50;;;;;;;;;;6269910;22;20165;-89
2023/03/18 01:52:55;;;;;;;10.10;4.53;;;;;;;;;;6273207;22;20202;-89
2023/03/18 01:56:01;;;;;;;10.87;4.73;;;;;;;;;;6273091;22;20684;-89
2023/03/18 01:59:09;;;;;;;13.03;5.20;;;;;;;;;;6272894;22;20527;-92
2023/03/18 02:02:24;;;;;;;10.93;4.60;;;;;;;;;;6272106;22;20170;-92
2023/03/18 02:05:30;;;;;;;10.67;4.60;;;;;;;;;;6270877;22;20189;-91
2023/03/18 02:08:36;;;;;;;10.30;4.40;;;;;;;;;;6271268;22;20170;-90
2023/03/18 02:11:43;;;;;;;11.27;4.90;;;;;;;;;;6274681;22;20161;-93
2023/03/18 02:14:51;;;;;;;13.83;4.73;;;;;;;;;;6272444;22;20612;-89
2023/03/18 02:17:59;;;;;;;10.37;4.60;;;;;;;;;;6271372;22;20214;-89
2023/03/18 02:21:20;;;;;;;12.80;4.67;;;;;;;;;;6268408;22;20208;-89
2023/03/18 02:24:34;;;;;;;12.27;4.60;;;;;;;;;;6270547;22;20256;-91
2023/03/18 02:27:45;;;;;;;11.90;5.00;;;;;;;;;;6269578;22;20166;-91
2023/03/18 02:30:52;;;;;;;12.53;4.90;;;;;;;;;;6270129;22;20215;-90
2023/03/18 02:33:58;;;;;;;14.97;4.60;;;;;;;;;;6271004;22;20211;-92
2023/03/18 02:37:06;;;;;;;13.67;5.00;;;;;;;;;;6270831;22;20208;-93
2023/03/18 02:40:13;;;;;;;9.50;4.90;;;;;;;;;;6270618;22;20188;-90
2023/03/18 02:43:22;;;;;;;9.97;4.53;;;;;;;;;;6269492;22;20169;-91
2023/03/18 02:46:35;;;;;;;11.73;5.03;;;;;;;;;;6268862;22;20216;-93
2023/03/18 02:49:40;;;;;;;11.07;4.77;;;;;;;;;;6270174;22;20153;-92
2023/03/18 02:52:46;;;;;;;9.57;4.40;;;;;;;;;;6269202;22;20166;-92
2023/03/18 02:55:51;;;;;;;16.80;4.93;;;;;;;;;;6268983;22;20200;-90
2023/03/18 02:58:57;;;;;;;9.93;4.50;;;;;;;;;;6268958;22;20161;-92
2023/03/18 03:02:03;;;;;;;9.67;4.60;;;;;;;;;;6271295;22;20189;-91
2023/03/18 03:05:09;;;;;;;13.27;4.70;;;;;;;;;;6270377;22;20169;-91
2023/03/18 03:08:15;;;;;;;12.90;4.57;;;;;;;;;;6271574;22;20233;-91
2023/03/18 03:11:23;;;;;;;13.00;5.00;;;;;;;;;;6272715;22;20204;-91
2023/03/18 03:14:31;;;;;;;8.67;4.70;;;;;;;;;;6273295;22;20189;-91
2023/03/18 03:17:40;;;;;;;10.30;5.27;;;;;;;;;;6272013;22;20173;-93
2023/03/18 03:24:21;;;;;;;13.67;5.17;;;;;;;;;;6272978;22;20165;-90
2023/03/18 03:27:26;;;;;;;11.23;5.00;;;;;;;;;;6273758;22;20257;-90
2023/03/18 03:30:34;;;;;;;14.30;4.80;;;;;;;;;;6273805;22;20165;-94
2023/03/18 03:33:40;;;;;;;16.13;5.17;;;;;;;;;;6272254;22;20197;-90
2023/03/18 03:36:45;;;;;;;13.63;5.07;;;;;;;;;;6272093;22;20198;-92
2023/03/18 03:39:50;;;;;;;18.03;5.50;;;;;;;;;;6271884;22;20165;-90
2023/03/18 03:42:57;;;;;;;14.77;5.83;;;;;;;;;;6272361;22;20174;-88
2023/03/18 03:46:04;;;;;;;12.90;5.17;;;;;;;;;;6272657;22;20162;-92
2023/03/18 03:49:10;;;;;;;14.60;5.80;;;;;;;;;;6270638;22;20165;-92
2023/03/18 03:52:17;;;;;;;12.50;5.00;;;;;;;;;;6272426;22;20169;-94
2023/03/18 03:55:24;;;;;;;12.20;5.90;;;;;;;;;;6272735;22;20174;-92
2023/03/18 03:58:31;;;;;;;16.87;5.27;;;;;;;;;;6271710;22;20611;-90
2023/03/18 04:01:40;;;;;;;13.77;5.50;;;;;;;;;;6270598;22;20216;-92
2023/03/18 04:04:46;;;;;;;12.30;5.67;;;;;;;;;;6270441;22;20268;-90
2023/03/18 04:08:00;;;;;;;12.20;5.50;;;;;;;;;;6271544;22;20284;-93
2023/03/18 04:11:24;;;;;;;14.00;5.77;;;;;;;;;;6269333;22;20170;-89
2023/03/18 04:14:29;;;;;;;14.03;5.83;;;;;;;;;;6269922;22;20312;-89
2023/03/18 04:17:36;;;;;;;15.23;5.57;;;;;;;;;;6269519;22;20153;-91
2023/03/18 04:25:03;;;;;;;10.87;5.40;;;;;;;;;;6288626;22;20213;-93
2023/03/18 04:28:08;;;;;;;14.00;5.20;;;;;;;;;;6268764;22;20220;-91
2023/03/18 04:31:15;;;;;;;16.00;5.77;;;;;;;;;;6271002;22;20169;-92
2023/03/18 04:34:22;;;;;;;20.03;6.37;;;;;;;;;;6271471;22;20189;-91
2023/03/18 04:37:28;;;;;;;13.80;5.40;;;;;;;;;;6271859;22;20186;-93
2023/03/18 04:40:35;;;;;;;13.90;6.00;;;;;;;;;;6270414;22;20161;-91
2023/03/18 04:43:41;;;;;;;12.57;5.23;;;;;;;;;;6270297;22;20213;-89
2023/03/18 04:46:47;;;;;;;12.80;5.50;;;;;;;;;;6271910;22;20188;-92
2023/03/18 04:49:54;;;;;;;17.13;5.60;;;;;;;;;;6272503;22;20205;-91
2023/03/18 04:53:00;;;;;;;14.50;5.73;;;;;;;;;;6272640;22;20216;-89
2023/03/18 04:56:08;;;;;;;13.03;5.13;;;;;;;;;;6272959;22;20281;-92
2023/03/18 04:59:23;;;;;;;13.90;5.50;;;;;;;;;;6271300;22;20209;-89
2023/03/18 05:02:35;;;;;;;14.10;6.17;;;;;;;;;;6271325;22;20248;-91
2023/03/18 05:05:59;;;;;;;13.10;5.40;;;;;;;;;;6271837;22;20166;-91
2023/03/18 05:09:15;;;;;;;10.80;5.07;;;;;;;;;;6272486;22;20185;-88
2023/03/18 05:12:21;;;;;;;9.77;4.60;;;;;;;;;;6271346;22;20217;-91
2023/03/18 05:15:28;;;;;;;11.07;4.73;;;;;;;;;;6273995;22;20177;-93
2023/03/18 05:18:36;;;;;;;11.37;4.80;;;;;;;;;;6272466;22;20165;-91
2023/03/18 05:21:45;;;;;;;11.50;5.17;;;;;;;;;;6273425;22;20213;-90
2023/03/18 05:24:59;;;;;;;14.17;5.17;;;;;;;;;;6273112;22;20166;-91
2023/03/18 05:28:07;;;;;;;11.70;5.20;;;;;;;;;;6272976;22;20157;-89
2023/03/18 05:31:23;;;;;;;12.23;5.10;;;;;;;;;;6272718;22;20162;-91
2023/03/18 05:34:31;;;;;;;14.73;5.30;;;;;;;;;;6273305;22;20275;-90
2023/03/18 05:37:38;;;;;;;13.13;5.50;;;;;;;;;;6274089;22;20177;-91
2023/03/18 05:40:46;;;;;;;12.77;5.47;;;;;;;;;;6270530;22;20166;-89
2023/03/18 05:44:00;;;;;;;10.30;5.20;;;;;;;;;;6274087;22;20169;-88
2023/03/18 05:47:08;;;;;;;12.40;5.23;;;;;;;;;;6272624;22;20161;-89
2023/03/18 05:50:30;;;;;;;17.30;5.27;;;;;;;;;;6274159;22;20160;-89
2023/03/18 05:53:38;;;;;;;8.97;4.90;;;;;;;;;;6272254;22;20162;-90
2023/03/18 05:56:53;;;;;;;9.33;4.70;;;;;;;;;;6273182;22;20181;-88
2023/03/18 05:59:59;;;;;;;13.93;5.20;;;;;;;;;;6274387;22;20185;-89
2023/03/18 06:06:57;;;;;;;12.60;4.60;;;;;;;;;;6270839;22;20141;-88
2023/03/18 06:10:04;;;;;;;11.93;4.90;;;;;;;;;;6272972;22;20165;-90
2023/03/18 06:13:12;;;;;;;8.97;4.40;;;;;;;;;;6272258;22;20165;-91
2023/03/18 06:16:18;;;;;;;11.53;4.63;;;;;;;;;;6272371;22;20173;-88
2023/03/18 06:19:24;;;;;;;10.20;4.77;;;;;;;;;;6272060;22;20181;-90
2023/03/18 06:23:10;;;;;;;8.37;4.60;;;;;;;;;;6272721;22;20153;-87
2023/03/18 06:26:17;;;;;;;12.60;4.83;;;;;;;;;;6274119;22;20170;-91
2023/03/18 06:29:25;;;;;;;11.77;4.40;;;;;;;;;;6272939;22;20565;-93
2023/03/18 06:32:34;;;;;;;9.67;4.77;;;;;;;;;;6272019;22;20157;-89
2023/03/18 06:35:41;;;;;;;7.50;4.10;;;;;;;;;;6271318;22;20182;-90
2023/03/18 06:38:47;;;;;;;10.93;4.27;;;;;;;;;;6271483;22;20208;-88
2023/03/18 06:41:54;;;;;;;11.63;4.87;;;;;;;;;;6275260;22;20236;-92
2023/03/18 06:45:11;;;;;;;17.83;7.80;;;;;;;;;;6271786;22;20628;-91
2023/03/18 06:48:24;;;;;;;13.93;5.77;;;;;;;;;;6270953;22;20709;-90
2023/03/18 06:51:29;;;;;;;7.40;3.80;;;;;;;;;;6271647;22;20240;-88
2023/03/18 06:54:39;;;;;;;9.40;4.73;;;;;;;;;;6272020;22;20201;-90
2023/03/18 06:57:46;;;;;;;9.73;4.23;;;;;;;;;;6273252;22;20162;-91
2023/03/18 07:01:11;;;;;;;13.13;4.27;;;;;;;;;;6273759;22;20201;-91
2023/03/18 07:04:22;;;;;;;14.07;4.40;;;;;;;;;;6271577;22;20186;-89
2023/03/18 07:07:28;;;;;;;9.87;4.33;;;;;;;;;;6270705;22;20154;-90
2023/03/18 07:10:33;;;;;;;9.67;4.40;;;;;;;;;;6272653;22;20189;-91
2023/03/18 07:13:48;;;;;;;10.20;4.53;;;;;;;;;;6272962;22;20166;-93
2023/03/18 07:17:11;;;;;;;8.50;4.43;;;;;;;;;;6270507;22;20234;-90
2023/03/18 07:20:22;;;;;;;9.30;4.37;;;;;;;;;;6271025;22;20173;-91
2023/03/18 07:23:29;;;;;;;9.10;4.57;;;;;;;;;;6271706;22;20169;-91
2023/03/18 07:26:36;;;;;;;12.50;5.00;;;;;;;;;;6272815;22;20472;-91
2023/03/18 07:29:46;;;;;;;10.47;4.63;;;;;;;;;;6271984;22;20182;-92
2023/03/18 07:32:51;;;;;;;9.30;4.47;;;;;;;;;;6272469;22;20158;-91
2023/03/18 07:35:57;;;;;;;8.53;4.20;;;;;;;;;;6273495;22;20197;-92
2023/03/18 07:39:02;;;;;;;6.93;4.27;;;;;;;;;;6272808;22;20185;-93
2023/03/18 07:42:08;;;;;;;9.87;4.40;;;;;;;;;;6273569;22;20505;-92
2023/03/18 07:45:18;;;;;;;10.47;4.60;;;;;;;;;;6273237;22;20174;-92
2023/03/18 07:48:23;;;;;;;12.20;4.80;;;;;;;;;;6274452;22;20158;-92
2023/03/18 07:51:28;;;;;;;10.30;4.27;;;;;;;;;;6275684;22;20197;-90
2023/03/18 07:54:35;;;;;;;10.77;4.80;;;;;;;;;;6276060;22;20193;-92
2023/03/18 07:57:41;;;;;;;10.20;4.40;;;;;;;;;;6274923;22;20161;-90
2023/03/18 08:01:21;;;;;;;10.47;4.70;;;;;;;;;;6275243;22;20170;-92
2023/03/18 08:04:28;;;;;;;9.47;4.40;;;;;;;;;;6274797;22;20153;-89
2023/03/18 08:07:33;;;;;;;10.23;3.93;;;;;;;;;;6275967;22;20166;-91
2023/03/18 08:10:39;;;;;;;15.47;5.13;;;;;;;;;;6276990;22;20236;-93
2023/03/18 08:13:52;;;;;;;13.02;4.60;;;;;;;;;;6274921;22;20193;-89
2023/03/18 08:16:57;;;;;;;9.18;4.30;;;;;;;;;;6275903;22;20247;-92
2023/03/18 08:20:11;;;;;;;10.52;4.75;;;;;;;;;;6274266;22;20154;-88
2023/03/18 08:23:18;;;;;;;14.25;5.40;;;;;;;;;;6275485;22;20165;-89
2023/03/18 08:26:25;;;;;;;21.50;9.50;;;;;;;;;;6274798;22;20209;-93
2023/03/18 08:29:31;;;;;;;14.20;7.03;;;;;;;;;;6273676;22;20166;-89
2023/03/18 08:32:37;;;;;;;13.23;5.03;;;;;;;;;;6277032;22;20172;-90
2023/03/18 08:35:43;;;;;;;9.52;4.53;;;;;;;;;;6275210;22;20181;-91
2023/03/18 08:38:53;;;;;;;13.40;5.00;;;;;;;;;;6276763;22;20278;-93
2023/03/18 08:41:58;;;;;;;15.07;7.22;;;;;;;;;;6275986;22;20213;-91
2023/03/18 08:45:03;;;;;;;10.02;5.22;;;;;;;;;;6274807;22;20169;-89
2023/03/18 08:48:08;;;;;;;10.90;4.80;;;;;;;;;;6274458;22;20223;-92
2023/03/18 08:51:13;;;;;;;12.60;4.63;;;;;;;;;;6276023;22;20170;-94
2023/03/18 08:54:21;;;;;;;14.05;5.60;;;;;;;;;;6276456;22;20171;-94
2023/03/18 08:57:26;;;;;;;13.27;5.63;;;;;;;;;;6276170;22;20166;-92
2023/03/18 09:00:32;;;;;;;14.20;5.13;;;;;;;;;;6275463;22;20165;-92
2023/03/18 09:03:38;;;;;;;11.05;5.43;;;;;;;;;;6275385;22;20161;-90
2023/03/18 09:06:43;;;;;;;9.15;5.20;;;;;;;;;;6275350;22;20162;-92
2023/03/18 09:09:49;;;;;;;13.40;6.18;;;;;;;;;;6276767;22;20193;-92
2023/03/18 09:12:55;;;;;;;13.02;5.82;;;;;;;;;;6276818;22;20178;-94
2023/03/18 09:16:05;;;;;;;14.90;6.35;;;;;;;;;;6275474;22;20200;-91
2023/03/18 09:19:11;;;;;;;14.80;6.03;;;;;;;;;;6276121;22;20154;-92
2023/03/18 09:22:17;;;;;;;13.77;6.13;;;;;;;;;;6275140;22;20162;-88
2023/03/18 09:25:23;;;;;;;16.92;6.40;;;;;;;;;;6276739;22;20170;-91
2023/03/18 09:28:28;;;;;;;13.13;6.38;;;;;;;;;;6277011;22;20234;-91
2023/03/18 09:31:34;;;;;;;16.65;6.07;;;;;;;;;;6276003;22;20230;-93
2023/03/18 09:34:39;;;;;;;19.42;6.65;;;;;;;;;;6276711;22;20154;-92
2023/03/18 09:37:46;;;;;;;18.05;6.85;;;;;;;;;;6274671;22;20165;-89
2023/03/18 09:41:00;;;;;;;12.30;6.28;;;;;;;;;;6276398;22;20229;-89
2023/03/18 09:44:13;;;;;;;19.50;6.80;;;;;;;;;;6275076;22;20161;-93
2023/03/18 09:47:25;;;;;;;10.90;6.50;;;;;;;;;;6273717;22;20174;-92
2023/03/18 09:50:38;;;;;;;22.20;7.40;;;;;;;;;;6274723;22;20162;-90
2023/03/18 09:53:47;;;;;;;14.20;6.90;;;;;;;;;;6276442;22;20154;-90
2023/03/18 09:56:55;;;;;;;18.10;6.90;;;;;;;;;;6275453;22;20165;-92
2023/03/18 10:00:04;;;;;;;13.48;7.07;;;;;;;;;;6274746;22;20166;-89
2023/03/18 10:03:26;;;;;;;15.38;7.45;;;;;;;;;;6293378;22;20166;-89
2023/03/18 10:06:32;;;;;;;12.40;7.68;;;;;;;;;;6275799;22;20153;-90
2023/03/18 10:09:40;;;;;;;16.98;7.35;;;;;;;;;;6275252;22;20239;-94
2023/03/18 10:12:49;;;;;;;17.63;7.63;;;;;;;;;;6274172;22;20162;-90
2023/03/18 10:15:56;;;;;;;17.75;8.57;;;;;;;;;;6272870;22;20204;-91
2023/03/18 10:19:02;;;;;;;12.65;7.35;;;;;;;;;;6273259;22;20198;-88
2023/03/18 10:25:40;;;;;;;16.00;8.65;;;;;;;;;;6273953;22;20162;-93
2023/03/18 10:28:58;;;;;;;15.77;8.10;;;;;;;;;;6271926;22;20162;-89
2023/03/18 10:32:07;;;;;;;17.75;8.73;;;;;;;;;;6273443;22;20161;-90
2023/03/18 10:35:31;;;;;;;16.50;8.90;;;;;;;;;;6274968;22;20196;-89
2023/03/18 10:38:38;;;;;;;19.60;10.15;;;;;;;;;;6273418;22;20166;-94
2023/03/18 10:41:44;;;;;;;19.08;10.75;;;;;;;;;;6272088;22;20594;-90
2023/03/18 10:44:53;;;;;;;16.88;9.82;;;;;;;;;;6271855;22;20203;-93
2023/03/18 10:48:00;;;;;;;16.40;9.75;;;;;;;;;;6273223;22;20170;-89
2023/03/18 10:51:11;;;;;;;22.10;9.32;;;;;;;;;;6273140;22;20154;-90
2023/03/18 10:54:19;;;;;;;22.33;10.55;;;;;;;;;;6275367;22;20170;-92
2023/03/18 10:57:26;;;;;;;23.13;9.57;;;;;;;;;;6272970;22;20174;-91
2023/03/18 11:00:33;;;;;;;18.23;9.60;;;;;;;;;;6274938;22;20149;-90
2023/03/18 11:03:44;;;;;;;16.88;10.05;;;;;;;;;;6273089;22;20181;-91
2023/03/18 11:06:50;;;;;;;18.30;8.98;;;;;;;;;;6274463;22;20236;-89
2023/03/18 11:09:55;;;;;;;18.63;9.90;;;;;;;;;;6276186;22;20244;-91
2023/03/18 11:13:02;;;;;;;20.08;9.80;;;;;;;;;;6273380;22;20220;-90
2023/03/18 11:16:15;;;;;;;18.15;9.40;;;;;;;;;;6274337;22;20501;-87
2023/03/18 11:19:25;;;;;;;17.05;9.23;;;;;;;;;;6275051;22;20193;-90
2023/03/18 11:22:31;;;;;;;15.68;9.07;;;;;;;;;;6276243;22;20297;-91
2023/03/18 11:25:37;;;;;;;14.88;9.30;;;;;;;;;;6275137;22;20188;-91
2023/03/18 11:28:44;;;;;;;20.38;10.25;;;;;;;;;;6274552;22;20625;-90
2023/03/18 11:31:53;;;;;;;15.57;9.75;;;;;;;;;;6276038;22;20177;-91
2023/03/18 11:35:00;;;;;;;17.63;9.82;;;;;;;;;;6277227;22;20170;-91
2023/03/18 11:38:06;;;;;;;17.15;9.57;;;;;;;;;;6277484;22;20161;-90
2023/03/18 11:41:15;;;;;;;16.48;9.27;;;;;;;;;;6275967;22;20162;-91
2023/03/18 11:44:25;;;;;;;16.88;8.95;;;;;;;;;;6277386;22;20234;-92
2023/03/18 11:47:35;;;;;;;17.75;10.20;;;;;;;;;;6274290;22;20159;-91
2023/03/18 11:50:43;;;;;;;18.58;10.05;;;;;;;;;;6276282;22;20150;-89
2023/03/18 11:53:56;;;;;;;23.02;10.15;;;;;;;;;;6273489;22;20169;-91
2023/03/18 11:57:04;;;;;;;20.55;10.05;;;;;;;;;;6271502;22;20178;-89
2023/03/18 12:00:18;;;;;;;19.80;10.50;;;;;;;;;;6271607;22;20185;-89
2023/03/18 12:03:46;;;;;;;22.75;10.35;;;;;;;;;;6271166;22;20601;-90
2023/03/18 12:07:00;;;;;;;21.75;9.70;;;;;;;;;;6271845;22;20282;-88
2023/03/18 12:10:13;;;;;;;18.83;9.75;;;;;;;;;;6273035;22;20264;-90
2023/03/18 12:13:25;;;;;;;21.35;9.18;;;;;;;;;;6274365;22;20154;-93
2023/03/18 12:16:42;;;;;;;23.33;9.98;;;;;;;;;;6273400;22;20174;-89
2023/03/18 12:19:58;;;;;;;21.25;9.98;;;;;;;;;;6274505;22;20244;-92
2023/03/18 12:23:09;;;;;;;22.48;9.77;;;;;;;;;;6272221;22;20178;-92
2023/03/18 12:26:20;;;;;;;19.98;10.02;;;;;;;;;;6274849;22;20203;-90
2023/03/18 12:29:43;;;;;;;22.75;9.63;;;;;;;;;;6274240;22;20492;-90
2023/03/18 12:32:56;;;;;;;24.00;9.95;;;;;;;;;;6274837;22;20170;-91
2023/03/18 12:36:04;;;;;;;20.48;9.30;;;;;;;;;;6276077;22;20195;-90
2023/03/18 12:39:32;;;;;;;22.13;9.77;;;;;;;;;;6275577;22;20671;-90
2023/03/18 12:42:49;;;;;;;22.60;9.90;;;;;;;;;;6275052;22;20150;-90
2023/03/18 12:45:58;;;;;;;18.38;8.85;;;;;;;;;;6271833;22;20193;-93
2023/03/18 12:49:10;;;;;;;28.15;10.20;;;;;;;;;;6271463;22;20216;-92
2023/03/18 12:52:21;;;;;;;21.17;9.27;;;;;;;;;;6272288;22;20157;-90
2023/03/18 12:55:29;;;;;;;20.65;9.43;;;;;;;;;;6275783;22;20165;-91
2023/03/18 12:58:39;;;;;;;25.73;10.27;;;;;;;;;;6273073;22;20177;-91
2023/03/18 13:01:50;;;;;;;24.27;10.45;;;;;;;;;;6270340;22;20174;-91
2023/03/18 13:04:58;;;;;;;29.85;10.07;;;;;;;;;;6271893;22;20173;-90
2023/03/18 13:08:22;;;;;;;20.55;9.85;;;;;;;;;;6272937;22;20181;-93
2023/03/18 13:11:58;;;;;;;21.80;9.40;;;;;;;;;;6273874;22;20174;-91
2023/03/18 13:19:01;;;;;;;20.88;9.90;;;;;;;;;;6273567;22;20226;-92
2023/03/18 13:22:35;;;;;;;18.27;9.93;;;;;;;;;;6273239;22;20603;-90
2023/03/18 13:25:46;;;;;;;20.00;9.73;;;;;;;;;;6273859;22;20193;-92
2023/03/18 13:29:04;;;;;;;20.05;8.63;;;;;;;;;;6272839;22;20213;-92
2023/03/18 13:32:21;;;;;;;20.08;10.07;;;;;;;;;;6272110;22;20479;-91
2023/03/18 13:35:35;;;;;;;23.77;9.80;;;;;;;;;;6273286;22;20165;-94
2023/03/18 13:38:52;;;;;;;22.20;10.55;;;;;;;;;;6271689;22;20177;-91
2023/03/18 13:42:07;;;;;;;21.35;9.52;;;;;;;;;;6270710;22;20293;-91
2023/03/18 13:45:18;;;;;;;19.50;9.93;;;;;;;;;;6272536;22;20235;-92
2023/03/18 13:48:27;;;;;;;19.63;11.13;;;;;;;;;;6269728;22;20165;-92
2023/03/18 13:51:49;;;;;;;20.23;10.15;;;;;;;;;;6271846;22;20229;-91
2023/03/18 13:54:55;;;;;;;18.70;8.90;;;;;;;;;;6289635;22;20177;-91
2023/03/18 13:58:10;;;;;;;17.08;9.05;;;;;;;;;;6273908;22;20161;-90
2023/03/18 14:01:39;;;;;;;16.23;8.82;;;;;;;;;;6269520;22;20173;-91
2023/03/18 14:04:48;;;;;;;19.13;9.25;;;;;;;;;;6269734;22;20212;-92
2023/03/18 14:07:55;;;;;;;19.55;8.80;;;;;;;;;;6271009;22;20323;-93
2023/03/18 14:11:21;;;;;;;19.90;8.63;;;;;;;;;;6271912;22;20173;-92
2023/03/18 14:18:40;;;;;;;18.85;8.57;;;;;;;;;;6289659;22;20173;-89
2023/03/18 14:21:48;;;;;;;18.52;8.18;;;;;;;;;;6273822;22;20283;-91
2023/03/18 14:25:12;;;;;;;28.00;8.38;;;;;;;;;;6271536;22;20212;-90
2023/03/18 14:28:23;;;;;;;17.85;8.27;;;;;;;;;;6273163;22;20281;-91
2023/03/18 14:31:50;;;;;;;19.30;7.20;;;;;;;;;;6272578;22;20170;-90
2023/03/18 14:34:57;;;;;;;17.95;7.35;;;;;;;;;;6271818;22;20273;-91
2023/03/18 14:38:05;;;;;;;17.83;7.13;;;;;;;;;;6271369;22;20161;-91
2023/03/18 14:41:28;;;;;;;17.45;7.93;;;;;;;;;;6271818;22;20173;-89
2023/03/18 14:44:41;;;;;;;16.10;7.13;;;;;;;;;;6272071;22;20174;-91
2023/03/18 14:47:49;;;;;;;13.70;6.85;;;;;;;;;;6272522;22;20197;-90
2023/03/18 14:50:55;;;;;;;19.10;7.32;;;;;;;;;;6274306;22;20240;-92
2023/03/18 14:54:04;;;;;;;16.15;8.35;;;;;;;;;;6276412;22;20202;-91
2023/03/18 14:57:09;;;;;;;23.13;7.85;;;;;;;;;;6276545;22;20188;-91
2023/03/18 15:00:20;;;;;;;17.08;7.20;;;;;;;;;;6275723;22;20489;-91
2023/03/18 15:03:29;;;;;;;21.77;7.18;;;;;;;;;;6276722;22;20218;-92
2023/03/18 15:06:36;;;;;;;16.13;7.05;;;;;;;;;;6275078;22;20267;-91
2023/03/18 15:09:42;;;;;;;15.30;6.50;;;;;;;;;;6276920;22;20169;-91
2023/03/18 15:12:57;;;;;;;15.70;6.57;;;;;;;;;;6278418;22;20185;-90
2023/03/18 15:16:14;;;;;;;19.90;6.80;;;;;;;;;;6277323;22;20158;-89
2023/03/18 15:19:20;;;;;;;12.57;6.38;;;;;;;;;;6277619;22;20238;-91
2023/03/18 15:22:37;;;;;;;14.68;6.85;;;;;;;;;;6276200;22;20216;-90
2023/03/18 15:25:44;;;;;;;17.10;6.60;;;;;;;;;;6277962;22;20185;-91
2023/03/18 15:28:53;;;;;;;17.73;7.13;;;;;;;;;;6276891;22;20178;-87
2023/03/18 15:32:15;;;;;;;15.55;6.65;;;;;;;;;;6278225;22;20174;-90
2023/03/18 15:35:21;;;;;;;15.18;7.10;;;;;;;;;;6276735;22;20211;-91
2023/03/18 15:38:28;;;;;;;23.48;11.43;;;;;;;;;;6278498;22;20174;-91
2023/03/18 15:41:35;;;;;;;15.65;7.18;;;;;;;;;;6277568;22;20166;-90
2023/03/18 15:44:41;;;;;;;17.38;6.60;;;;;;;;;;6277060;22;20145;-89
2023/03/18 15:47:50;;;;;;;19.48;6.47;;;;;;;;;;6276371;22;20296;-90
2023/03/18 15:50:57;;;;;;;15.15;6.80;;;;;;;;;;6277328;22;20198;-91
2023/03/18 15:54:08;;;;;;;15.45;7.30;;;;;;;;;;6279856;22;20170;-91
2023/03/18 15:57:21;;;;;;;17.17;6.82;;;;;;;;;;6276963;22;20166;-91
2023/03/18 16:00:29;;;;;;;15.55;6.32;;;;;;;;;;6277290;22;20146;-90
2023/03/18 16:04:04;;;;;;;15.77;6.40;;;;;;;;;;6279244;22;20185;-90
2023/03/18 16:07:15;;;;;;;15.43;6.72;;;;;;;;;;6280777;22;20213;-92
2023/03/18 16:10:21;;;;;;;16.27;6.40;;;;;;;;;;6280050;22;20201;-88
2023/03/18 16:13:30;;;;;;;13.75;5.75;;;;;;;;;;6279786;22;20157;-93
2023/03/18 16:16:38;;;;;;;14.82;6.03;;;;;;;;;;6279703;22;20233;-90
2023/03/18 16:19:44;;;;;;;18.17;6.00;;;;;;;;;;6280820;22;20185;-90
2023/03/18 16:22:50;;;;;;;15.85;6.65;;;;;;;;;;6281520;22;20209;-92
2023/03/18 16:25:57;;;;;;;15.35;6.68;;;;;;;;;;6280145;22;20165;-89
2023/03/18 16:29:05;;;;;;;15.45;6.60;;;;;;;;;;6281224;22;20157;-92
2023/03/18 16:32:12;;;;;;;19.20;6.20;;;;;;;;;;6282480;22;20161;-89
2023/03/18 16:35:19;;;;;;;17.52;7.15;;;;;;;;;;6283090;22;20214;-94
2023/03/18 16:38:30;;;;;;;16.85;6.70;;;;;;;;;;6281654;22;20238;-90
2023/03/18 16:41:36;;;;;;;20.65;8.23;;;;;;;;;;6280207;22;20237;-91
2023/03/18 16:44:42;;;;;;;16.75;6.15;;;;;;;;;;6280114;22;20169;-90
2023/03/18 16:47:52;;;;;;;18.02;6.35;;;;;;;;;;6281738;22;20193;-90
2023/03/18 16:51:01;;;;;;;18.10;7.38;;;;;;;;;;6296602;22;20150;-90
2023/03/18 16:54:16;;;;;;;20.77;7.18;;;;;;;;;;6279387;22;20189;-93
2023/03/18 16:57:27;;;;;;;20.25;7.82;;;;;;;;;;6277133;22;20154;-89
2023/03/18 17:00:34;;;;;;;23.25;9.20;;;;;;;;;;6277305;22;20173;-90
2023/03/18 17:03:43;;;;;;;16.65;7.63;;;;;;;;;;6276737;22;20174;-92
2023/03/18 17:06:48;;;;;;;17.30;8.30;;;;;;;;;;6277016;22;20262;-92
2023/03/18 17:09:55;;;;;;;19.85;6.82;;;;;;;;;;6275158;22;20261;-92
2023/03/18 17:13:04;;;;;;;23.02;8.48;;;;;;;;;;6275445;22;20218;-89
2023/03/18 17:16:15;;;;;;;24.70;8.95;;;;;;;;;;6277631;22;20209;-89
2023/03/18 17:19:25;;;;;;;21.08;8.43;;;;;;;;;;6295070;22;20177;-93
2023/03/18 17:22:58;;;;;;;21.63;8.77;;;;;;;;;;6276598;22;20165;-92
2023/03/18 17:26:05;;;;;;;23.45;8.38;;;;;;;;;;6276629;22;20153;-89
2023/03/18 17:29:11;;;;;;;21.35;8.20;;;;;;;;;;6276149;22;20170;-94
2023/03/18 17:32:18;;;;;;;18.98;8.35;;;;;;;;;;6278362;22;20488;-91
2023/03/18 17:35:24;;;;;;;20.70;8.98;;;;;;;;;;6277642;22;20165;-91
2023/03/18 17:38:31;;;;;;;22.70;10.93;;;;;;;;;;6277377;22;20190;-89
2023/03/18 17:41:38;;;;;;;25.70;10.82;;;;;;;;;;6276292;22;20161;-89
2023/03/18 17:44:44;;;;;;;27.58;9.90;;;;;;;;;;6255916;22;20157;-91
2023/03/18 17:47:50;;;;;;;23.85;10.68;;;;;;;;;;6278220;22;20297;-89
2023/03/18 17:50:57;;;;;;;25.58;10.05;;;;;;;;;;6278347;22;20590;-91
2023/03/18 17:54:05;;;;;;;24.58;10.60;;;;;;;;;;6275128;22;20174;-92
2023/03/18 17:57:14;;;;;;;21.65;10.25;;;;;;;;;;6277328;22;20173;-89
2023/03/18 18:00:26;;;;;;;29.75;10.93;;;;;;;;;;6275031;22;20192;-91
2023/03/18 18:07:05;;;;;;;23.25;9.50;;;;;;;;;;6276833;22;20528;-91
2023/03/18 18:10:11;;;;;;;23.75;10.02;;;;;;;;;;6275787;22;20189;-92
2023/03/18 18:13:19;;;;;;;29.20;10.85;;;;;;;;;;6276263;22;20166;-92
2023/03/18 18:16:24;;;;;;;27.50;10.23;;;;;;;;;;6275273;22;20243;-91
2023/03/18 18:19:29;;;;;;;25.75;10.05;;;;;;;;;;6278839;22;20185;-90
2023/03/18 18:22:45;;;;;;;28.27;10.15;;;;;;;;;;6279807;22;20162;-91
2023/03/18 18:25:51;;;;;;;22.77;9.75;;;;;;;;;;6277939;22;20209;-88
2023/03/18 18:28:59;;;;;;;27.52;9.40;;;;;;;;;;6278469;22;20188;-93
2023/03/18 18:32:04;;;;;;;26.80;9.93;;;;;;;;;;6276347;22;20237;-90
2023/03/18 18:35:11;;;;;;;22.38;9.48;;;;;;;;;;6276458;22;20186;-90
2023/03/18 18:38:17;;;;;;;23.88;9.40;;;;;;;;;;6273732;22;20170;-90
2023/03/18 18:41:23;;;;;;;26.33;10.85;;;;;;;;;;6273600;22;20170;-87
2023/03/18 18:44:30;;;;;;;23.42;9.98;;;;;;;;;;6272122;22;20157;-90
2023/03/18 18:47:37;;;;;;;29.20;11.65;;;;;;;;;;6270422;22;20197;-88
2023/03/18 18:50:43;;;;;;;23.80;10.57;;;;;;;;;;6271816;22;20170;-87
2023/03/18 18:53:51;;;;;;;23.35;10.07;;;;;;;;;;6271205;22;20227;-89
2023/03/18 18:57:06;;;;;;;20.10;9.45;;;;;;;;;;6272429;22;20145;-92
2023/03/18 19:00:22;;;;;;;21.48;9.38;;;;;;;;;;6275671;22;20170;-91
2023/03/18 19:03:58;;;;;;;36.08;13.05;;;;;;;;;;6277248;22;20221;-92
2023/03/18 19:07:06;;;;;;;29.80;12.23;;;;;;;;;;6276569;22;20242;-90
2023/03/18 19:10:12;;;;;;;35.97;12.70;;;;;;;;;;6276374;22;20240;-92
2023/03/18 19:13:19;;;;;;;24.33;10.77;;;;;;;;;;6277789;22;20223;-93
2023/03/18 19:16:32;;;;;;;31.45;11.68;;;;;;;;;;6276100;22;20808;-92
2023/03/18 19:19:41;;;;;;;22.77;9.48;;;;;;;;;;6275494;22;20166;-94
2023/03/18 19:22:49;;;;;;;24.27;9.10;;;;;;;;;;6274211;22;20173;-93
2023/03/18 19:26:04;;;;;;;22.27;9.52;;;;;;;;;;6274328;22;20337;-93
2023/03/18 19:29:14;;;;;;;26.15;11.43;;;;;;;;;;6274433;22;20258;-93